createdAt,value
2023-09-27T00:01:39.132Z,97
2023-09-27T00:03:20.088Z,97.1
2023-09-27T00:05:01.212Z,96.8
2023-09-27T00:06:42.324Z,96.8
2023-09-27T00:08:22.941Z,97.1
2023-09-27T00:10:03.728Z,97
2023-09-27T00:11:44.206Z,96.8
2023-09-27T00:13:24.665Z,97.1
2023-09-27T00:15:05.111Z,97
2023-09-27T00:16:45.677Z,96.9
2023-09-27T00:18:26.212Z,96.9
2023-09-27T00:20:06.867Z,97
2023-09-27T00:21:47.371Z,97.1
2023-09-27T00:23:28.228Z,97
2023-09-27T00:25:08.814Z,97.1
2023-09-27T00:26:49.404Z,97
2023-09-27T00:28:29.893Z,96.8
2023-09-27T00:30:10.377Z,96.8
2023-09-27T00:31:51.212Z,96.8
2023-09-27T00:33:31.965Z,97
2023-09-27T00:35:12.643Z,97
2023-09-27T00:36:53.201Z,97
2023-09-27T00:38:33.728Z,97
2023-09-27T00:40:14.481Z,96.9
2023-09-27T00:42:11.970Z,97
2023-09-27T00:43:52.435Z,97.1
2023-09-27T00:45:33.000Z,96.9
2023-09-27T00:47:13.507Z,97.2
2023-09-27T00:48:54.457Z,97
2023-09-27T00:50:35.242Z,96.9
2023-09-27T00:52:15.727Z,97
2023-09-27T00:53:56.196Z,96.7
2023-09-27T00:55:36.665Z,96.9
2023-09-27T00:57:20.020Z,97.1
2023-09-27T00:59:00.620Z,96.9
2023-09-27T01:00:41.185Z,96.9
2023-09-27T01:02:21.927Z,96.9
2023-09-27T01:04:02.626Z,96.9
2023-09-27T01:05:43.218Z,96.7
2023-09-27T01:07:23.812Z,96.9
2023-09-27T01:09:04.292Z,96.7
2023-09-27T01:10:44.754Z,97
2023-09-27T01:12:25.296Z,97
2023-09-27T01:14:05.901Z,97
2023-09-27T01:15:46.512Z,97
2023-09-27T01:17:27.156Z,96.9
2023-09-27T01:19:07.730Z,97
2023-09-27T01:20:48.184Z,97.1
2023-09-27T01:22:28.700Z,97
2023-09-27T01:24:09.192Z,97
2023-09-27T01:25:49.702Z,96.9
2023-09-27T01:27:30.268Z,96.8
2023-09-27T01:29:10.773Z,96.9
2023-09-27T01:30:51.319Z,97.1
2023-09-27T01:32:31.999Z,97
2023-09-27T01:34:12.645Z,96.9
2023-09-27T01:35:53.099Z,97.1
2023-09-27T01:37:33.667Z,97
2023-09-27T01:39:14.120Z,96.9
2023-09-27T01:40:54.631Z,96.9
2023-09-27T01:42:35.295Z,97.1
2023-09-27T01:44:15.910Z,96.9
2023-09-27T01:45:56.935Z,97.1
2023-09-27T01:47:37.717Z,97.2
2023-09-27T01:49:18.490Z,97.1
2023-09-27T01:50:58.959Z,97
2023-09-27T01:52:39.423Z,97.1
2023-09-27T01:54:19.857Z,97.2
2023-09-27T01:56:00.361Z,96.9
2023-09-27T01:57:41.028Z,97
2023-09-27T01:59:21.665Z,97.1
2023-09-27T02:01:02.336Z,97.1
2023-09-27T02:03:22.694Z,97
2023-09-27T02:05:03.543Z,97
2023-09-27T02:06:44.204Z,97.1
2023-09-27T02:08:24.799Z,97.1
2023-09-27T02:10:05.293Z,97
2023-09-27T02:11:45.851Z,97.1
2023-09-27T02:13:26.320Z,96.9
2023-09-27T02:15:06.757Z,97.1
2023-09-27T02:16:47.211Z,96.9
2023-09-27T02:18:27.741Z,97.1
2023-09-27T02:20:08.272Z,97
2023-09-27T02:21:48.790Z,96.9
2023-09-27T02:23:29.337Z,97.1
2023-09-27T02:25:09.908Z,96.9
2023-09-27T02:26:50.448Z,97
2023-09-27T02:28:31.092Z,97.1
2023-09-27T02:30:11.576Z,97
2023-09-27T02:31:52.246Z,97.1
2023-09-27T02:33:32.715Z,97.1
2023-09-27T02:35:13.222Z,96.8
2023-09-27T02:36:54.080Z,97
2023-09-27T02:38:34.674Z,97.1
2023-09-27T02:40:16.221Z,97
2023-09-27T02:41:56.755Z,97
2023-09-27T02:43:37.165Z,97.1
2023-09-27T02:45:18.215Z,97.1
2023-09-27T02:46:58.975Z,97
2023-09-27T02:48:39.560Z,97
2023-09-27T02:50:20.077Z,97
2023-09-27T02:52:00.579Z,97
2023-09-27T02:53:41.029Z,96.9
2023-09-27T02:55:21.686Z,97.2
2023-09-27T02:57:02.184Z,97
2023-09-27T02:58:42.604Z,97
2023-09-27T03:00:23.131Z,97.4
2023-09-27T03:02:03.742Z,97
2023-09-27T03:03:45.805Z,97.2
2023-09-27T03:05:26.324Z,97.1
2023-09-27T03:07:06.821Z,96.9
2023-09-27T03:08:47.285Z,97
2023-09-27T03:10:27.760Z,97.1
2023-09-27T03:12:08.425Z,97.2
2023-09-27T03:13:48.856Z,97.1
2023-09-27T03:15:29.357Z,97.2
2023-09-27T03:17:10.051Z,97
2023-09-27T03:18:50.625Z,97.2
2023-09-27T03:20:31.278Z,97.2
2023-09-27T03:22:11.735Z,97
2023-09-27T03:23:52.200Z,96.9
2023-09-27T03:25:32.650Z,97.2
2023-09-27T03:27:13.129Z,97.1
2023-09-27T03:28:54.149Z,97
2023-09-27T03:30:35.137Z,97
2023-09-27T03:32:15.703Z,97.1
2023-09-27T03:33:56.166Z,97.1
2023-09-27T03:35:36.711Z,97.1
2023-09-27T03:37:17.263Z,97.1
2023-09-27T03:38:57.728Z,97.3
2023-09-27T03:40:38.186Z,96.9
2023-09-27T03:42:18.656Z,97.1
2023-09-27T03:43:59.165Z,97.2
2023-09-27T03:45:39.745Z,96.9
2023-09-27T03:47:20.323Z,97.3
2023-09-27T03:49:00.933Z,97.1
2023-09-27T03:50:41.531Z,97.1
2023-09-27T03:52:22.006Z,97.1
2023-09-27T03:54:19.544Z,97
2023-09-27T03:56:00.133Z,97
2023-09-27T03:57:40.748Z,97.4
2023-09-27T03:59:21.460Z,97.2
2023-09-27T04:01:02.024Z,97.2
2023-09-27T04:02:42.730Z,97.2
2023-09-27T04:04:23.524Z,97.2
2023-09-27T04:06:04.054Z,97.2
2023-09-27T04:07:44.618Z,97
2023-09-27T04:09:25.123Z,97.2
2023-09-27T04:11:05.648Z,97.3
2023-09-27T04:12:46.190Z,96.9
2023-09-27T04:14:26.795Z,97
2023-09-27T04:16:07.451Z,97.1
2023-09-27T04:17:48.030Z,96.9
2023-09-27T04:19:28.573Z,97.3
2023-09-27T04:21:09.058Z,97.1
2023-09-27T04:22:49.559Z,97.3
2023-09-27T04:24:30.043Z,97.1
2023-09-27T04:26:10.702Z,97.1
2023-09-27T04:27:51.912Z,97.1
2023-09-27T04:29:32.635Z,97.1
2023-09-27T04:31:13.289Z,97.1
2023-09-27T04:32:54.167Z,97.3
2023-09-27T04:34:34.884Z,97
2023-09-27T04:36:15.388Z,97.2
2023-09-27T04:37:55.876Z,97.1
2023-09-27T04:39:36.425Z,97
2023-09-27T04:41:16.945Z,97.3
2023-09-27T04:42:57.761Z,97.1
2023-09-27T04:44:38.414Z,97.2
2023-09-27T04:46:19.314Z,97.2
2023-09-27T04:47:59.984Z,97.2
2023-09-27T04:49:40.479Z,97.4
2023-09-27T04:51:20.920Z,97.3
2023-09-27T04:53:01.511Z,97.4
2023-09-27T04:54:42.038Z,97.1
2023-09-27T04:56:22.575Z,97.3
2023-09-27T04:58:03.139Z,97.3
2023-09-27T04:59:43.635Z,97.2
2023-09-27T05:01:24.125Z,97.1
2023-09-27T05:03:04.700Z,97
2023-09-27T05:04:45.292Z,97.1
2023-09-27T05:06:25.884Z,97.1
2023-09-27T05:08:06.707Z,97.1
2023-09-27T05:09:47.360Z,97
2023-09-27T05:11:27.940Z,97
2023-09-27T05:13:08.588Z,97.2
2023-09-27T05:14:49.202Z,97.3
2023-09-27T05:16:30.711Z,97.1
2023-09-27T05:18:13.414Z,97.3
2023-09-27T05:19:53.884Z,97.4
2023-09-27T05:21:34.357Z,97.2
2023-09-27T05:23:14.865Z,96.9
2023-09-27T05:24:55.469Z,97.3
2023-09-27T05:26:36.107Z,97.3
2023-09-27T05:28:16.729Z,97.2
2023-09-27T05:29:57.243Z,97.1
2023-09-27T05:31:37.819Z,97.4
2023-09-27T05:33:18.467Z,97.1
2023-09-27T05:34:59.194Z,97.3
2023-09-27T05:36:39.780Z,97
2023-09-27T05:38:20.444Z,97.1
2023-09-27T05:40:00.989Z,97.1
2023-09-27T05:43:38.822Z,97
2023-09-27T05:45:19.523Z,97.4
2023-09-27T05:47:00.160Z,97.2
2023-09-27T05:48:40.846Z,97.4
2023-09-27T05:50:21.449Z,97.3
2023-09-27T05:52:02.120Z,97.1
2023-09-27T05:53:42.596Z,97.3
2023-09-27T05:55:23.057Z,97.1
2023-09-27T05:57:03.577Z,97.3
2023-09-27T05:58:44.055Z,97.3
2023-09-27T06:00:27.213Z,97.1
2023-09-27T06:02:08.029Z,97.3
2023-09-27T06:03:48.701Z,97.4
2023-09-27T06:05:29.309Z,97.1
2023-09-27T06:07:09.795Z,97.2
2023-09-27T06:08:50.248Z,97.3
2023-09-27T06:10:31.018Z,97
2023-09-27T06:12:11.563Z,97.2
2023-09-27T06:13:52.106Z,97.1
2023-09-27T06:15:32.773Z,97.3
2023-09-27T06:17:13.544Z,97.2
2023-09-27T06:18:54.470Z,97.4
2023-09-27T06:20:35.054Z,97.3
2023-09-27T06:22:15.590Z,97.2
2023-09-27T06:23:56.089Z,97.3
2023-09-27T06:25:36.572Z,97.3
2023-09-27T06:27:16.996Z,97.3
2023-09-27T06:28:58.262Z,97.2
2023-09-27T06:30:39.547Z,97.1
2023-09-27T06:32:20.201Z,97.2
2023-09-27T06:34:00.674Z,97.1
2023-09-27T06:35:41.313Z,97.2
2023-09-27T06:37:21.944Z,97.5
2023-09-27T06:39:02.440Z,97.1
2023-09-27T06:40:42.899Z,97.1
2023-09-27T06:42:23.437Z,97.3
2023-09-27T06:44:04.133Z,97.3
2023-09-27T06:45:44.734Z,97.2
2023-09-27T06:47:25.325Z,97.4
2023-09-27T06:49:06.002Z,97.1
2023-09-27T06:50:46.686Z,97.3
2023-09-27T06:52:27.443Z,97.3
2023-09-27T06:54:07.961Z,97.4
2023-09-27T06:55:48.664Z,97.3
2023-09-27T06:57:29.159Z,97.3
2023-09-27T06:59:09.837Z,97.3
2023-09-27T07:00:50.610Z,97.2
2023-09-27T07:02:31.148Z,97.2
2023-09-27T07:04:11.904Z,97.4
2023-09-27T07:05:52.715Z,97.3
2023-09-27T07:07:33.588Z,97.4
2023-09-27T07:09:14.048Z,97.3
2023-09-27T07:10:54.602Z,97.5
2023-09-27T07:12:35.198Z,97.4
2023-09-27T07:14:15.741Z,97.5
2023-09-27T07:15:56.423Z,97.2
2023-09-27T07:17:37.295Z,97.7
2023-09-27T07:19:17.884Z,97.3
2023-09-27T07:20:58.363Z,97.6
2023-09-27T07:22:38.900Z,97.4
2023-09-27T07:24:19.406Z,97.3
2023-09-27T07:25:59.922Z,97.5
2023-09-27T07:27:40.475Z,97.4
2023-09-27T07:29:21.047Z,97.3
2023-09-27T07:31:01.756Z,97.4
2023-09-27T07:31:19.461Z,97.4
2023-09-27T07:33:00.298Z,97.5
2023-09-27T07:34:40.845Z,97.3
2023-09-27T07:36:21.282Z,97.6
2023-09-27T07:38:01.795Z,97.5
2023-09-27T07:39:45.531Z,97.6
2023-09-27T07:41:26.111Z,97.3
2023-09-27T07:43:07.003Z,97.3
2023-09-27T07:44:47.540Z,97.4
2023-09-27T07:46:28.095Z,97.6
2023-09-27T07:48:09.052Z,97.4
2023-09-27T07:49:49.645Z,97.4
2023-09-27T07:51:30.301Z,97.7
2023-09-27T07:53:11.276Z,97.5
2023-09-27T07:54:51.924Z,97.7
2023-09-27T07:56:32.565Z,97.5
2023-09-27T07:58:13.054Z,97.6
2023-09-27T07:59:53.535Z,97.5
2023-09-27T08:03:26.592Z,97.5
2023-09-27T08:05:07.310Z,97.4
2023-09-27T08:06:48.022Z,97.6
2023-09-27T08:08:28.662Z,97.4
2023-09-27T08:10:22.640Z,97.6
2023-09-27T08:12:03.574Z,97.4
2023-09-27T08:13:44.112Z,97.6
2023-09-27T08:15:24.604Z,97.7
2023-09-27T08:17:05.237Z,97.5
2023-09-27T08:18:45.788Z,97.6
2023-09-27T08:20:26.245Z,97.7
2023-09-27T08:22:07.129Z,97.4
2023-09-27T08:23:47.598Z,97.6
2023-09-27T08:25:28.117Z,97.6
2023-09-27T08:27:08.588Z,97.7
2023-09-27T08:28:49.030Z,97.7
2023-09-27T08:30:29.572Z,97.6
2023-09-27T08:32:10.056Z,97.6
2023-09-27T08:33:50.506Z,97.6
2023-09-27T08:35:31.059Z,97.6
2023-09-27T08:37:11.512Z,97.6
2023-09-27T08:38:52.479Z,97.6
2023-09-27T08:40:33.459Z,97.6
2023-09-27T08:42:13.903Z,97.4
2023-09-27T08:43:54.365Z,97.6
2023-09-27T08:45:34.962Z,97.5
2023-09-27T08:47:15.580Z,97.5
2023-09-27T08:48:56.106Z,97.5
2023-09-27T08:50:36.974Z,97.6
2023-09-27T08:52:17.574Z,97.7
2023-09-27T08:53:58.500Z,97.7
2023-09-27T08:55:39.000Z,97.6
2023-09-27T08:57:19.458Z,97.4
2023-09-27T08:58:59.916Z,97.6
2023-09-27T09:00:40.435Z,97.6
2023-09-27T09:02:21.032Z,97.9
2023-09-27T09:04:01.828Z,97.8
2023-09-27T09:05:42.692Z,97.7
2023-09-27T09:07:23.370Z,97.7
2023-09-27T09:09:03.936Z,97.6
2023-09-27T09:10:44.426Z,97.7
2023-09-27T09:12:24.868Z,97.8
2023-09-27T09:14:06.108Z,97.7
2023-09-27T09:15:47.123Z,97.6
2023-09-27T09:17:27.726Z,97.6
2023-09-27T09:19:08.547Z,97.5
2023-09-27T09:20:49.001Z,97.6
2023-09-27T09:22:29.889Z,97.4
2023-09-27T09:24:10.318Z,97.5
2023-09-27T09:25:50.767Z,97.5
2023-09-27T09:27:31.231Z,97.7
2023-09-27T09:29:11.796Z,97.6
2023-09-27T09:30:52.277Z,97.6
2023-09-27T09:32:33.003Z,97.6
2023-09-27T09:34:13.566Z,97.6
2023-09-27T09:35:54.022Z,97.8
2023-09-27T09:37:34.491Z,97.7
2023-09-27T09:39:15.295Z,97.6
2023-09-27T09:40:56.013Z,97.7
2023-09-27T09:42:36.559Z,97.6
2023-09-27T09:44:17.088Z,97.7
2023-09-27T09:45:57.690Z,97.7
2023-09-27T09:47:38.743Z,97.6
2023-09-27T09:49:19.523Z,97.7
2023-09-27T09:50:59.970Z,97.8
2023-09-27T09:52:40.513Z,97.6
2023-09-27T09:52:57.426Z,97.6
2023-09-27T09:54:38.036Z,97.7
2023-09-27T09:56:28.997Z,97.5
2023-09-27T09:58:22.414Z,97.6
2023-09-27T10:00:03.015Z,97.7
2023-09-27T10:01:43.635Z,97.8
2023-09-27T10:03:24.385Z,97.7
2023-09-27T10:05:04.996Z,97.6
2023-09-27T10:06:50.780Z,97.6
2023-09-27T10:08:31.355Z,97.7
2023-09-27T10:10:11.964Z,97.8
2023-09-27T10:11:52.761Z,97.7
2023-09-27T10:13:33.255Z,97.6
2023-09-27T10:15:13.736Z,97.8
2023-09-27T10:16:54.201Z,97.6
2023-09-27T10:18:34.839Z,97.7
2023-09-27T10:20:15.819Z,97.7
2023-09-27T10:21:56.247Z,97.6
2023-09-27T10:23:36.815Z,97.8
2023-09-27T10:25:17.371Z,97.5
2023-09-27T10:26:57.829Z,97.7
2023-09-27T10:28:38.294Z,97.5
2023-09-27T10:30:18.741Z,97.7
2023-09-27T10:31:59.473Z,97.6
2023-09-27T10:33:40.083Z,97.7
2023-09-27T10:35:20.817Z,97.7
2023-09-27T10:37:19.937Z,97.6
2023-09-27T10:39:00.484Z,97.6
2023-09-27T10:40:40.936Z,97.7
2023-09-27T10:42:21.527Z,97.7
2023-09-27T10:44:02.179Z,97.8
2023-09-27T10:45:42.697Z,97.8
2023-09-27T10:47:23.290Z,97.8
2023-09-27T10:49:03.931Z,97.8
2023-09-27T10:50:44.476Z,97.8
2023-09-27T10:52:24.966Z,97.7
2023-09-27T10:54:05.403Z,97.8
2023-09-27T10:55:45.848Z,97.7
2023-09-27T10:57:26.324Z,97.8
2023-09-27T10:59:06.759Z,97.7
2023-09-27T11:00:47.330Z,97.7
2023-09-27T11:02:27.893Z,97.7
2023-09-27T11:04:08.614Z,97.7
2023-09-27T11:05:49.319Z,97.9
2023-09-27T11:07:29.971Z,97.8
2023-09-27T11:09:10.415Z,97.7
2023-09-27T11:10:51.044Z,97.7
2023-09-27T11:12:31.697Z,97.6
2023-09-27T11:14:12.272Z,97.9
2023-09-27T11:15:52.775Z,97.8
2023-09-27T11:17:33.792Z,97.8
2023-09-27T11:19:14.598Z,97.8
2023-09-27T11:20:55.234Z,97.8
2023-09-27T11:22:35.806Z,97.9
2023-09-27T11:24:16.272Z,97.9
2023-09-27T11:25:56.734Z,97.7
2023-09-27T11:27:37.180Z,97.9
2023-09-27T11:29:17.756Z,97.8
2023-09-27T11:30:58.120Z,97.8
2023-09-27T11:32:38.645Z,97.7
2023-09-27T11:34:19.208Z,97.8
2023-09-27T11:35:59.722Z,97.9
2023-09-27T11:37:40.231Z,97.9
2023-09-27T11:39:20.712Z,97.6
2023-09-27T11:42:58.474Z,97.9
2023-09-27T11:44:39.060Z,97.8
2023-09-27T11:46:19.696Z,97.8
2023-09-27T11:48:00.504Z,97.9
2023-09-27T11:49:41.149Z,98
2023-09-27T11:51:21.670Z,97.8
2023-09-27T11:53:02.146Z,97.9
2023-09-27T11:54:42.595Z,97.9
2023-09-27T11:56:23.080Z,97.9
2023-09-27T11:58:03.599Z,97.7
2023-09-27T11:59:44.170Z,97.9
2023-09-27T12:01:24.707Z,97.7
2023-09-27T12:03:05.407Z,98
2023-09-27T12:04:46.329Z,98.1
2023-09-27T12:06:27.891Z,97.9
2023-09-27T12:08:08.899Z,97.9
2023-09-27T12:09:49.559Z,98
2023-09-27T12:11:30.185Z,98
2023-09-27T12:13:10.832Z,97.9
2023-09-27T12:14:52.767Z,97.9
2023-09-27T12:16:35.915Z,97.8
2023-09-27T12:18:16.809Z,97.9
2023-09-27T12:19:57.405Z,97.9
2023-09-27T12:21:38.039Z,97.9
2023-09-27T12:23:18.597Z,97.8
2023-09-27T12:24:59.107Z,97.9
2023-09-27T12:26:39.565Z,97.9
2023-09-27T12:28:20.194Z,98
2023-09-27T12:30:00.665Z,97.9
2023-09-27T12:31:41.307Z,97.8
2023-09-27T12:33:24.299Z,97.9
2023-09-27T12:35:05.090Z,97.9
2023-09-27T12:36:45.555Z,98
2023-09-27T12:38:26.029Z,97.9
2023-09-27T12:40:06.741Z,98.1
2023-09-27T12:41:47.300Z,98
2023-09-27T12:43:27.874Z,98.1
2023-09-27T12:45:08.422Z,97.9
2023-09-27T12:46:49.013Z,97.9
2023-09-27T12:48:29.669Z,98
2023-09-27T12:50:14.591Z,98
2023-09-27T12:51:55.139Z,98.1
2023-09-27T12:53:35.749Z,98.1
2023-09-27T12:55:16.558Z,98
2023-09-27T12:56:57.116Z,98
2023-09-27T12:58:37.774Z,98
2023-09-27T13:00:18.375Z,98
2023-09-27T13:01:59.033Z,98.2
2023-09-27T13:03:39.726Z,97.9
2023-09-27T13:05:20.354Z,98
2023-09-27T13:07:00.981Z,98.1
2023-09-27T13:08:41.560Z,98
2023-09-27T13:10:22.361Z,98.2
2023-09-27T13:12:02.798Z,98.2
2023-09-27T13:13:43.356Z,98.3
2023-09-27T13:15:23.873Z,98.1
2023-09-27T13:17:04.381Z,98.2
2023-09-27T13:18:44.958Z,98.2
2023-09-27T13:20:25.576Z,98.3
2023-09-27T13:22:06.066Z,98.2
2023-09-27T13:23:46.592Z,98.2
2023-09-27T13:25:27.171Z,98.3
2023-09-27T13:27:07.620Z,98.1
2023-09-27T13:28:48.100Z,98.1
2023-09-27T13:30:45.440Z,98.2
2023-09-27T13:32:25.967Z,98.2
2023-09-27T13:34:12.994Z,98.3
2023-09-27T13:35:54.154Z,98.3
2023-09-27T13:37:34.679Z,98.3
2023-09-27T13:39:15.461Z,98.3
2023-09-27T13:40:56.053Z,98.3
2023-09-27T13:42:36.632Z,98.1
2023-09-27T13:44:17.488Z,98.3
2023-09-27T13:45:58.229Z,98.2
2023-09-27T13:47:38.910Z,98.1
2023-09-27T13:49:19.586Z,98.3
2023-09-27T13:51:00.025Z,98.2
2023-09-27T13:52:40.523Z,98.3
2023-09-27T13:54:21.017Z,98.3
2023-09-27T13:56:01.565Z,98.3
2023-09-27T13:57:42.082Z,98.3
2023-09-27T13:59:22.626Z,98.5
2023-09-27T14:03:14.679Z,98.4
2023-09-27T14:04:55.648Z,98.3
2023-09-27T14:06:36.296Z,98.4
2023-09-27T14:08:16.813Z,98.4
2023-09-27T14:09:57.402Z,98.4
2023-09-27T14:11:38.038Z,98.2
2023-09-27T14:13:18.514Z,98.2
2023-09-27T14:14:58.963Z,98.2
2023-09-27T14:16:39.981Z,98.2
2023-09-27T14:18:20.790Z,98.2
2023-09-27T14:20:01.704Z,98.4
2023-09-27T14:21:42.286Z,98.4
2023-09-27T14:23:22.861Z,98.4
2023-09-27T14:25:03.605Z,98.4
2023-09-27T14:26:44.171Z,98.5
2023-09-27T14:28:24.760Z,98.5
2023-09-27T14:30:05.347Z,98.4
2023-09-27T14:31:46.715Z,98.5
2023-09-27T14:33:27.297Z,98.4
2023-09-27T14:35:07.984Z,98.4
2023-09-27T14:36:48.679Z,98.4
2023-09-27T14:38:29.132Z,98.4
2023-09-27T14:40:09.625Z,98.5
2023-09-27T14:41:50.043Z,98.6
2023-09-27T14:43:30.531Z,98.6
2023-09-27T14:45:32.013Z,98.6
2023-09-27T14:47:13.143Z,98.6
2023-09-27T14:48:53.591Z,98.6
2023-09-27T14:50:34.065Z,98.5
2023-09-27T14:52:14.485Z,98.7
2023-09-27T14:53:55.380Z,98.6
2023-09-27T14:55:36.040Z,98.5
2023-09-27T14:57:16.465Z,98.6
2023-09-27T14:58:57.379Z,98.6
2023-09-27T15:00:41.473Z,98.6
2023-09-27T15:02:22.040Z,98.7
2023-09-27T15:04:02.729Z,98.7
2023-09-27T15:05:43.403Z,98.6
2023-09-27T15:07:23.848Z,98.6
2023-09-27T15:09:04.366Z,98.6
2023-09-27T15:10:44.822Z,98.6
2023-09-27T15:12:25.393Z,98.7
2023-09-27T15:14:05.833Z,98.7
2023-09-27T15:15:46.375Z,98.7
2023-09-27T15:17:26.977Z,98.7
2023-09-27T15:19:07.584Z,98.7
2023-09-27T15:20:48.194Z,98.7
2023-09-27T15:22:28.780Z,98.8
2023-09-27T15:24:09.250Z,98.7
2023-09-27T15:25:49.838Z,98.7
2023-09-27T15:27:30.605Z,98.8
2023-09-27T15:29:11.064Z,98.9
2023-09-27T15:30:51.521Z,98.9
2023-09-27T15:32:32.209Z,98.8
2023-09-27T15:34:12.836Z,98.9
2023-09-27T15:35:53.324Z,98.8
2023-09-27T15:37:33.940Z,98.8
2023-09-27T15:39:14.405Z,98.8
2023-09-27T15:40:55.095Z,98.8
2023-09-27T15:42:35.542Z,98.8
2023-09-27T15:44:15.980Z,98.8
2023-09-27T15:45:56.452Z,98.7
2023-09-27T15:47:37.050Z,98.8
2023-09-27T15:49:17.453Z,98.8
2023-09-27T15:50:57.928Z,98.8
2023-09-27T15:52:55.310Z,98.8
2023-09-27T15:54:35.963Z,98.7
2023-09-27T15:56:16.482Z,98.7
2023-09-27T15:57:56.937Z,98.7
2023-09-27T15:59:37.461Z,98.8
2023-09-27T16:01:18.032Z,98.7
2023-09-27T16:02:58.734Z,98.7
2023-09-27T16:04:53.587Z,98.8
2023-09-27T16:06:37.879Z,98.8
2023-09-27T16:08:18.294Z,98.7
2023-09-27T16:09:58.754Z,98.7
2023-09-27T16:11:42.940Z,98.7
2023-09-27T16:13:25.390Z,98.7
2023-09-27T16:15:05.960Z,98.8
2023-09-27T16:16:46.550Z,98.8
2023-09-27T16:18:26.992Z,98.8
2023-09-27T16:20:07.425Z,98.7
2023-09-27T16:21:48.013Z,98.8
2023-09-27T16:23:28.456Z,98.7
2023-09-27T16:25:09.071Z,98.7
2023-09-27T16:26:49.612Z,98.8
2023-09-27T16:28:30.631Z,98.8
2023-09-27T16:30:12.180Z,98.8
2023-09-27T16:31:54.468Z,98.8
2023-09-27T16:33:35.258Z,98.8
2023-09-27T16:35:15.738Z,98.8
2023-09-27T16:36:56.237Z,98.8
2023-09-27T16:38:36.649Z,98.8
2023-09-27T16:40:17.096Z,98.7
2023-09-27T16:41:57.568Z,98.7
2023-09-27T16:43:38.029Z,98.7
2023-09-27T16:45:18.570Z,98.8
2023-09-27T16:46:59.159Z,98.8
2023-09-27T16:48:39.797Z,98.8
2023-09-27T16:50:20.243Z,98.7
2023-09-27T16:52:00.726Z,98.8
2023-09-27T16:53:41.153Z,98.7
2023-09-27T16:55:21.629Z,98.7
2023-09-27T16:57:02.077Z,98.7
2023-09-27T16:58:42.718Z,98.7
2023-09-27T17:00:23.393Z,98.8
2023-09-27T17:02:03.905Z,98.8
2023-09-27T17:03:44.624Z,98.8
2023-09-27T17:05:25.398Z,98.8
2023-09-27T17:07:05.853Z,98.7
2023-09-27T17:08:46.381Z,98.7
2023-09-27T17:10:26.925Z,98.7
2023-09-27T17:12:07.400Z,98.8
2023-09-27T17:13:47.873Z,98.7
2023-09-27T17:15:28.410Z,98.7
2023-09-27T17:17:08.992Z,98.8
2023-09-27T17:18:49.421Z,98.7
2023-09-27T17:20:29.902Z,98.7
2023-09-27T17:22:10.362Z,98.7
2023-09-27T17:23:50.876Z,98.7
2023-09-27T17:25:31.788Z,98.7
2023-09-27T17:27:12.213Z,98.7
2023-09-27T17:28:52.783Z,98.7
2023-09-27T17:30:33.330Z,98.7
2023-09-27T17:32:13.878Z,98.7
2023-09-27T17:33:55.401Z,98.7
2023-09-27T17:35:36.339Z,98.7
2023-09-27T17:37:16.827Z,98.8
2023-09-27T17:38:57.326Z,98.7
2023-09-27T17:40:37.997Z,98.7
2023-09-27T17:42:18.468Z,98.8
2023-09-27T17:42:35.403Z,98.7
2023-09-27T17:44:15.925Z,98.6
2023-09-27T17:45:56.383Z,98.8
2023-09-27T17:47:37.006Z,98.7
2023-09-27T17:49:17.693Z,98.8
2023-09-27T17:50:58.147Z,98.7
2023-09-27T17:52:38.719Z,98.7
2023-09-27T17:54:19.267Z,98.7
2023-09-27T17:55:59.819Z,98.8
2023-09-27T17:57:40.296Z,98.6
2023-09-27T17:59:20.742Z,98.7
2023-09-27T18:01:01.187Z,98.7
2023-09-27T18:02:41.988Z,98.8
2023-09-27T18:04:22.811Z,98.6
2023-09-27T18:06:03.432Z,98.7
2023-09-27T18:07:44.024Z,98.6
2023-09-27T18:09:24.598Z,98.7
2023-09-27T18:11:05.107Z,98.7
2023-09-27T18:12:45.609Z,98.7
2023-09-27T18:14:26.062Z,98.7
2023-09-27T18:16:06.615Z,98.7
2023-09-27T18:17:47.281Z,98.7
2023-09-27T18:19:27.799Z,98.7
2023-09-27T18:21:08.416Z,98.6
2023-09-27T18:22:49.010Z,98.7
2023-09-27T18:24:29.533Z,98.6
2023-09-27T18:26:10.238Z,98.8
2023-09-27T18:27:50.893Z,98.7
2023-09-27T18:29:32.212Z,98.8
2023-09-27T18:31:12.757Z,98.8
2023-09-27T18:32:53.301Z,98.7
2023-09-27T18:34:34.022Z,98.8
2023-09-27T18:36:14.550Z,98.7
2023-09-27T18:37:55.101Z,98.7
2023-09-27T18:39:35.672Z,98.6
2023-09-27T18:41:16.110Z,98.6
2023-09-27T18:42:56.569Z,98.6
2023-09-27T18:44:37.042Z,98.6
2023-09-27T18:46:17.571Z,98.6
2023-09-27T18:47:59.654Z,98.6
2023-09-27T18:49:40.398Z,98.6
2023-09-27T18:51:20.892Z,98.7
2023-09-27T18:53:02.797Z,98.6
2023-09-27T18:54:43.653Z,98.7
2023-09-27T18:56:24.208Z,98.6
2023-09-27T18:58:04.677Z,98.7
2023-09-27T18:59:45.132Z,98.6
2023-09-27T19:01:25.949Z,98.6
2023-09-27T19:03:06.948Z,98.6
2023-09-27T19:04:47.728Z,98.6
2023-09-27T19:06:28.496Z,98.5
2023-09-27T19:08:09.050Z,98.6
2023-09-27T19:09:49.828Z,98.6
2023-09-27T19:11:30.415Z,98.6
2023-09-27T19:13:11.182Z,98.6
2023-09-27T19:14:51.677Z,98.5
2023-09-27T19:16:32.251Z,98.7
2023-09-27T19:18:12.706Z,98.5
2023-09-27T19:19:53.203Z,98.5
2023-09-27T19:21:33.812Z,98.5
2023-09-27T19:23:14.298Z,98.5
2023-09-27T19:24:54.832Z,98.6
2023-09-27T19:26:35.298Z,98.6
2023-09-27T19:28:15.745Z,98.6
2023-09-27T19:29:56.193Z,98.6
2023-09-27T19:31:36.852Z,98.6
2023-09-27T19:31:54.280Z,98.6
2023-09-27T19:33:35.016Z,98.6
2023-09-27T19:35:15.807Z,98.6
2023-09-27T19:36:56.351Z,98.6
2023-09-27T19:38:36.829Z,98.6
2023-09-27T19:40:17.249Z,98.6
2023-09-27T19:41:57.713Z,98.7
2023-09-27T19:43:38.225Z,98.6
2023-09-27T19:45:18.739Z,98.6
2023-09-27T19:46:59.259Z,98.7
2023-09-27T19:48:39.738Z,98.6
2023-09-27T19:50:20.205Z,98.6
2023-09-27T19:52:00.711Z,98.7
2023-09-27T19:53:41.239Z,98.7
2023-09-27T19:55:21.805Z,98.7
2023-09-27T19:57:02.224Z,98.7
2023-09-27T19:58:42.762Z,98.9
2023-09-27T20:00:23.414Z,98.8
2023-09-27T20:02:03.974Z,98.8
2023-09-27T20:03:44.485Z,98.8
2023-09-27T20:05:25.013Z,98.9
2023-09-27T20:07:05.478Z,98.7
2023-09-27T20:08:45.993Z,98.8
2023-09-27T20:10:26.548Z,98.8
2023-09-27T20:12:07.035Z,98.8
2023-09-27T20:13:47.804Z,98.8
2023-09-27T20:15:28.370Z,98.8
2023-09-27T20:17:08.879Z,98.7
2023-09-27T20:18:49.485Z,98.7
2023-09-27T20:20:30.207Z,98.7
2023-09-27T20:22:10.696Z,98.7
2023-09-27T20:23:51.388Z,98.8
2023-09-27T20:25:32.613Z,98.7
2023-09-27T20:27:13.103Z,98.8
2023-09-27T20:28:53.744Z,98.7
2023-09-27T20:30:34.312Z,98.7
2023-09-27T20:32:14.833Z,98.7
2023-09-27T20:33:55.991Z,98.8
2023-09-27T20:35:38.105Z,98.7
2023-09-27T20:37:18.712Z,98.7
2023-09-27T20:38:59.265Z,98.6
2023-09-27T20:40:39.805Z,98.7
2023-09-27T20:42:20.269Z,98.6
2023-09-27T20:44:00.719Z,98.8
2023-09-27T20:45:41.349Z,98.7
2023-09-27T20:47:21.960Z,98.8
2023-09-27T20:49:02.498Z,98.7
2023-09-27T20:50:42.944Z,98.7
2023-09-27T20:52:23.412Z,98.7
2023-09-27T20:54:03.876Z,98.7
2023-09-27T20:55:44.399Z,98.9
2023-09-27T20:57:24.879Z,98.9
2023-09-27T20:59:05.425Z,98.8
2023-09-27T21:00:46.028Z,98.7
2023-09-27T21:03:21.014Z,98.8
2023-09-27T21:05:01.781Z,98.8
2023-09-27T21:06:42.373Z,98.7
2023-09-27T21:08:22.831Z,98.8
2023-09-27T21:10:03.426Z,98.8
2023-09-27T21:11:43.916Z,98.8
2023-09-27T21:13:24.430Z,98.7
2023-09-27T21:15:04.945Z,98.7
2023-09-27T21:16:45.459Z,98.8
2023-09-27T21:18:25.937Z,98.8
2023-09-27T21:20:06.521Z,98.8
2023-09-27T21:21:47.049Z,98.8
2023-09-27T21:23:27.519Z,98.8
2023-09-27T21:25:08.007Z,98.8
2023-09-27T21:26:48.521Z,99
2023-09-27T21:28:28.975Z,98.8
2023-09-27T21:30:09.563Z,98.8
2023-09-27T21:31:50.217Z,98.8
2023-09-27T21:33:30.876Z,98.7
2023-09-27T21:35:11.383Z,98.9
2023-09-27T21:36:51.974Z,98.8
2023-09-27T21:38:32.464Z,98.8
2023-09-27T21:40:13.075Z,98.8
2023-09-27T21:41:53.558Z,98.9
2023-09-27T21:43:34.208Z,98.9
2023-09-27T21:45:14.759Z,99
2023-09-27T21:46:55.408Z,98.8
2023-09-27T21:48:36.089Z,98.9
2023-09-27T21:50:16.553Z,98.9
2023-09-27T21:51:57.002Z,99
2023-09-27T21:53:37.459Z,98.8
2023-09-27T21:55:17.928Z,98.9
2023-09-27T21:56:58.359Z,98.9
2023-09-27T21:58:38.929Z,98.8
2023-09-27T22:00:19.478Z,98.9
2023-09-27T22:02:00.098Z,98.8
2023-09-27T22:03:40.777Z,98.8
2023-09-27T22:05:21.631Z,99
2023-09-27T22:07:02.153Z,99.1
2023-09-27T22:08:42.689Z,98.9
2023-09-27T22:10:23.260Z,99
2023-09-27T22:12:03.729Z,98.9
2023-09-27T22:13:44.228Z,98.9
2023-09-27T22:15:24.884Z,99
2023-09-27T22:17:05.710Z,98.9
2023-09-27T22:18:46.241Z,99
2023-09-27T22:20:26.694Z,98.9
2023-09-27T22:22:07.158Z,98.9
2023-09-27T22:23:47.626Z,98.8
2023-09-27T22:25:28.123Z,99
2023-09-27T22:27:08.683Z,99
2023-09-27T22:28:49.433Z,98.9
2023-09-27T22:30:29.955Z,98.9
2023-09-27T22:32:10.455Z,98.9
2023-09-27T22:33:51.067Z,99
2023-09-27T22:35:31.917Z,99
2023-09-27T22:37:12.371Z,98.9